Time;durP1;ratioP1;P1;durP2;ratioP2;P2;SDS_P1;SDS_P2;PMS_P1;PMS_P2;Temp;Humidity;BMP_temperature;BMP_pressure;BME280_temperature;BME280_humidity;BME280_pressure;Samples;Min_cycle;Max_cycle;Signal;HPM_P1;HPM_P2
2022/01/20 00:01:47;;;;;;;27.13;5.03;;;;;;;;;;6308680;22;20007;-94
2022/01/20 00:26:40;;;;;;;16.33;2.25;;;;;;;;;;6330725;22;20331;-93
2022/01/20 00:29:13;;;;;;;10.82;2.60;;;;;;;;;;6330675;22;20028;-94
2022/01/20 00:31:49;;;;;;;13.10;2.08;;;;;;;;;;6303576;22;20023;-93
2022/01/20 00:34:19;;;;;;;15.75;2.28;;;;;;;;;;6330474;22;20046;-93
2022/01/20 00:43:11;;;;;;;17.08;2.00;;;;;;;;;;6329230;22;20010;-93
2022/01/20 00:45:38;;;;;;;12.13;1.60;;;;;;;;;;6327793;22;20049;-92
2022/01/20 00:48:05;;;;;;;14.85;1.95;;;;;;;;;;6302403;22;20460;-94
2022/01/20 00:50:38;;;;;;;14.70;2.20;;;;;;;;;;6303138;22;20030;-93
2022/01/20 00:53:05;;;;;;;27.70;2.90;;;;;;;;;;6303688;22;20019;-93
2022/01/20 00:55:38;;;;;;;23.42;2.95;;;;;;;;;;6305528;22;20014;-93
2022/01/20 00:58:08;;;;;;;19.63;3.08;;;;;;;;;;6304633;22;20030;-93
2022/01/20 01:00:35;;;;;;;16.00;2.72;;;;;;;;;;6308365;22;20023;-93
2022/01/20 01:03:03;;;;;;;28.50;2.67;;;;;;;;;;6308517;22;20007;-93
2022/01/20 01:05:35;;;;;;;15.27;2.90;;;;;;;;;;6318320;22;20024;-93
2022/01/20 01:08:02;;;;;;;15.93;2.90;;;;;;;;;;6330640;22;20019;-93
2022/01/20 01:10:30;;;;;;;25.60;2.20;;;;;;;;;;6330128;22;20023;-93
2022/01/20 01:13:06;;;;;;;16.88;2.83;;;;;;;;;;6332544;22;20030;-93
2022/01/20 01:15:38;;;;;;;25.70;3.72;;;;;;;;;;6334338;22;20007;-93
2022/01/20 01:23:26;;;;;;;34.78;3.33;;;;;;;;;;6329886;22;20019;-93
2022/01/20 01:25:55;;;;;;;23.45;3.13;;;;;;;;;;6328129;22;20023;-93
2022/01/20 01:28:25;;;;;;;28.35;3.42;;;;;;;;;;6328028;22;20026;-93
2022/01/20 01:33:22;;;;;;;23.92;3.28;;;;;;;;;;6330504;22;20030;-92
2022/01/20 01:35:55;;;;;;;22.63;2.95;;;;;;;;;;6328978;22;20019;-93
2022/01/20 01:38:36;;;;;;;28.52;3.53;;;;;;;;;;6328344;22;20019;-92
2022/01/20 01:41:04;;;;;;;44.92;4.95;;;;;;;;;;6330175;22;20023;-94
2022/01/20 01:43:32;;;;;;;19.08;3.47;;;;;;;;;;6329604;22;20027;-93
2022/01/20 01:46:00;;;;;;;28.02;3.75;;;;;;;;;;6331986;22;20034;-93
2022/01/20 01:48:28;;;;;;;26.38;3.53;;;;;;;;;;6331000;22;20011;-92
2022/01/20 01:51:01;;;;;;;23.52;3.38;;;;;;;;;;6331082;22;20023;-93
2022/01/20 01:53:28;;;;;;;20.25;3.30;;;;;;;;;;6332988;22;20063;-93
2022/01/20 01:55:55;;;;;;;24.17;3.53;;;;;;;;;;6335116;22;20019;-94
2022/01/20 01:58:22;;;;;;;27.17;3.10;;;;;;;;;;6336273;22;20088;-93
2022/01/20 02:00:50;;;;;;;31.42;3.45;;;;;;;;;;6335104;22;20007;-93
2022/01/20 02:03:19;;;;;;;25.25;4.43;;;;;;;;;;6335325;22;20015;-93
2022/01/20 02:08:58;;;;;;;24.38;3.47;;;;;;;;;;6335507;22;20003;-94
2022/01/20 02:20:12;;;;;;;22.20;2.65;;;;;;;;;;6335821;22;20015;-93
2022/01/20 02:22:40;;;;;;;16.92;2.17;;;;;;;;;;6335602;22;20025;-94
2022/01/20 02:25:30;;;;;;;16.67;2.40;;;;;;;;;;6335620;22;20012;-92
2022/01/20 02:27:59;;;;;;;14.27;2.22;;;;;;;;;;6335889;22;20015;-93
2022/01/20 02:30:32;;;;;;;23.85;2.85;;;;;;;;;;6335840;22;20019;-93
2022/01/20 02:33:10;;;;;;;9.27;1.52;;;;;;;;;;6335102;22;20007;-95
2022/01/20 02:35:44;;;;;;;13.40;1.92;;;;;;;;;;6335879;22;20011;-93
2022/01/20 02:38:15;;;;;;;12.73;1.40;;;;;;;;;;6335616;22;20015;-94
2022/01/20 02:46:39;;;;;;;8.38;1.63;;;;;;;;;;6336037;22;20062;-94
2022/01/20 02:49:19;;;;;;;9.82;1.50;;;;;;;;;;6333140;22;20101;-92
2022/01/20 02:52:02;;;;;;;8.63;1.08;;;;;;;;;;6334072;22;20007;-93
2022/01/20 02:54:37;;;;;;;6.33;1.50;;;;;;;;;;6335208;22;20007;-95
2022/01/20 02:57:18;;;;;;;9.95;1.38;;;;;;;;;;6334357;22;20493;-94
2022/01/20 02:59:49;;;;;;;7.75;1.48;;;;;;;;;;6335653;22;20018;-93
2022/01/20 03:02:25;;;;;;;6.78;1.42;;;;;;;;;;6335740;22;20041;-94
2022/01/20 03:05:07;;;;;;;6.38;1.27;;;;;;;;;;6335899;22;20022;-94
2022/01/20 03:07:47;;;;;;;10.05;1.17;;;;;;;;;;6311208;22;20007;-94
2022/01/20 03:10:31;;;;;;;7.75;1.10;;;;;;;;;;6307023;22;20008;-94
2022/01/20 03:13:11;;;;;;;9.32;1.23;;;;;;;;;;6311560;22;20009;-94
2022/01/20 03:15:52;;;;;;;10.00;1.23;;;;;;;;;;6311155;22;20031;-93
2022/01/20 03:18:32;;;;;;;6.40;1.10;;;;;;;;;;6311753;22;20007;-92
2022/01/20 03:21:13;;;;;;;9.18;1.13;;;;;;;;;;6311209;22;20011;-93
2022/01/20 03:23:53;;;;;;;13.40;1.90;;;;;;;;;;6311198;22;20021;-93
2022/01/20 03:26:35;;;;;;;9.48;1.58;;;;;;;;;;6336257;22;20075;-92
2022/01/20 03:29:03;;;;;;;17.08;2.50;;;;;;;;;;6309857;22;20026;-93
2022/01/20 03:31:43;;;;;;;22.98;5.88;;;;;;;;;;6311718;22;20013;-93
2022/01/20 03:34:24;;;;;;;24.58;6.55;;;;;;;;;;6332647;22;20018;-93
2022/01/20 03:37:05;;;;;;;17.20;2.97;;;;;;;;;;6310498;22;20034;-93
2022/01/20 03:39:33;;;;;;;13.18;2.00;;;;;;;;;;6309330;22;20015;-93
2022/01/20 03:42:04;;;;;;;15.38;2.42;;;;;;;;;;6335791;22;20023;-93
2022/01/20 03:44:38;;;;;;;21.55;3.20;;;;;;;;;;6309910;22;20007;-92
2022/01/20 03:47:24;;;;;;;16.23;3.65;;;;;;;;;;6333818;22;19999;-92
2022/01/20 03:52:45;;;;;;;34.80;3.20;;;;;;;;;;6332608;22;20015;-93
2022/01/20 03:55:22;;;;;;;20.85;2.70;;;;;;;;;;6311131;22;20038;-93
2022/01/20 03:58:02;;;;;;;27.55;3.53;;;;;;;;;;6309769;22;20059;-93
2022/01/20 04:00:43;;;;;;;20.75;4.75;;;;;;;;;;6333113;22;20007;-94
2022/01/20 04:03:14;;;;;;;28.92;4.18;;;;;;;;;;6309805;22;20039;-92
2022/01/20 04:05:58;;;;;;;31.23;4.82;;;;;;;;;;6327366;22;20042;-93
2022/01/20 04:08:26;;;;;;;30.63;3.88;;;;;;;;;;6335374;22;20011;-93
2022/01/20 04:11:11;;;;;;;28.17;3.40;;;;;;;;;;6334207;22;20016;-93
2022/01/20 04:13:39;;;;;;;30.05;3.95;;;;;;;;;;6334927;22;20015;-94
2022/01/20 04:16:38;;;;;;;24.13;4.38;;;;;;;;;;6330673;22;20011;-91
2022/01/20 04:19:07;;;;;;;;;;;;;;;;;;6335620;22;20011;-93
2022/01/20 04:21:39;;;;;;;32.65;5.18;;;;;;;;;;6334803;22;19914;-92
2022/01/20 04:24:22;;;;;;;32.83;4.82;;;;;;;;;;6330422;22;20014;-93
2022/01/20 04:27:03;;;;;;;52.20;5.40;;;;;;;;;;6335537;22;20071;-93
2022/01/20 04:29:32;;;;;;;44.35;6.85;;;;;;;;;;6334887;22;20054;-93
2022/01/20 04:32:14;;;;;;;39.42;5.82;;;;;;;;;;6333704;22;20006;-92
2022/01/20 04:34:55;;;;;;;46.05;6.03;;;;;;;;;;6336735;22;20015;-90
2022/01/20 04:37:41;;;;;;;39.40;5.63;;;;;;;;;;6333755;22;20014;-94
2022/01/20 04:40:25;;;;;;;30.08;5.03;;;;;;;;;;6336129;22;19999;-93
2022/01/20 04:43:06;;;;;;;23.80;4.03;;;;;;;;;;6336286;22;20014;-93
2022/01/20 04:45:54;;;;;;;31.63;4.07;;;;;;;;;;6334469;22;20011;-94
2022/01/20 04:49:10;;;;;;;35.08;6.38;;;;;;;;;;6335579;22;20014;-94
2022/01/20 04:57:55;;;;;;;36.50;5.82;;;;;;;;;;6311998;22;20084;-94
2022/01/20 05:00:36;;;;;;;40.95;6.28;;;;;;;;;;6332416;22;20015;-94
2022/01/20 05:03:16;;;;;;;27.40;5.97;;;;;;;;;;6335054;22;20011;-92
2022/01/20 05:05:52;;;;;;;;;;;;;;;;;;6337265;22;20062;-94
2022/01/20 05:08:32;;;;;;;23.45;6.30;;;;;;;;;;6312962;22;19933;-94
2022/01/20 05:11:02;;;;;;;22.40;2.85;;;;;;;;;;6310966;22;20013;-93
2022/01/20 05:13:45;;;;;;;31.48;3.35;;;;;;;;;;6313353;22;20011;-94
2022/01/20 05:16:28;;;;;;;21.25;2.67;;;;;;;;;;6313078;22;20056;-93
2022/01/20 05:19:11;;;;;;;17.52;2.47;;;;;;;;;;6313966;22;20060;-94
2022/01/20 05:21:47;;;;;;;28.20;3.13;;;;;;;;;;6312812;22;20014;-93
2022/01/20 05:24:28;;;;;;;47.20;5.07;;;;;;;;;;6312915;22;20057;-93
2022/01/20 05:27:12;;;;;;;12.75;3.88;;;;;;;;;;6333498;22;20007;-93
2022/01/20 05:29:55;;;;;;;8.68;2.22;;;;;;;;;;6286740;22;20027;-95
2022/01/20 05:32:39;;;;;;;13.48;2.30;;;;;;;;;;6311367;22;20075;-93
2022/01/20 05:35:20;;;;;;;13.52;1.88;;;;;;;;;;6336306;22;20011;-93
2022/01/20 05:38:03;;;;;;;17.17;2.08;;;;;;;;;;6337753;22;20008;-93
2022/01/20 05:40:49;;;;;;;12.77;2.83;;;;;;;;;;6336949;22;19999;-91
2022/01/20 05:43:29;;;;;;;25.65;2.72;;;;;;;;;;6313449;22;20003;-93
2022/01/20 05:46:04;;;;;;;25.27;4.57;;;;;;;;;;6311300;22;20027;-92
2022/01/20 05:48:48;;;;;;;17.00;2.72;;;;;;;;;;6313080;22;20022;-92
2022/01/20 05:51:28;;;;;;;22.98;3.20;;;;;;;;;;6310708;22;20011;-92
2022/01/20 05:54:12;;;;;;;19.52;2.42;;;;;;;;;;6336773;22;20003;-93
2022/01/20 05:56:53;;;;;;;16.92;3.28;;;;;;;;;;6313554;22;20012;-93
2022/01/20 05:59:33;;;;;;;28.08;3.97;;;;;;;;;;6312678;22;20018;-92
2022/01/20 06:02:29;;;;;;;22.90;3.03;;;;;;;;;;6313418;22;19999;-93
2022/01/20 06:05:13;;;;;;;27.65;3.05;;;;;;;;;;6315891;22;20003;-93
2022/01/20 06:07:54;;;;;;;30.02;3.55;;;;;;;;;;6312419;22;20043;-93
2022/01/20 11:39:01;;;;;;;15.05;2.40;;;;;;;;;;6326038;22;20045;-93
2022/01/20 11:41:50;;;;;;;19.98;2.83;;;;;;;;;;6331240;22;20023;-93
2022/01/20 11:44:31;;;;;;;12.35;2.10;;;;;;;;;;6309207;22;20083;-94
2022/01/20 11:47:29;;;;;;;17.50;2.88;;;;;;;;;;6332466;22;20032;-94
2022/01/20 11:50:18;;;;;;;17.30;2.50;;;;;;;;;;6333966;22;19999;-94
2022/01/20 11:53:10;;;;;;;11.55;2.00;;;;;;;;;;6310245;22;20004;-94
2022/01/20 11:55:53;;;;;;;12.93;1.75;;;;;;;;;;6333064;22;20051;-93
2022/01/20 11:58:35;;;;;;;16.27;2.03;;;;;;;;;;6305262;22;20035;-95
2022/01/20 12:01:20;;;;;;;4.47;1.42;;;;;;;;;;6332697;22;20011;-94
2022/01/20 12:04:00;;;;;;;12.45;1.73;;;;;;;;;;6309725;22;20004;-93
2022/01/20 12:06:47;;;;;;;12.85;1.73;;;;;;;;;;6306503;22;20083;-94
2022/01/20 12:09:29;;;;;;;9.60;1.83;;;;;;;;;;6306681;22;20045;-95
2022/01/20 12:12:21;;;;;;;9.20;1.50;;;;;;;;;;6330920;22;20016;-94
2022/01/20 12:17:37;;;;;;;18.83;2.42;;;;;;;;;;6332298;22;20083;-94
2022/01/20 12:20:18;;;;;;;16.00;2.30;;;;;;;;;;6307187;22;20071;-93
2022/01/20 12:22:59;;;;;;;8.13;2.25;;;;;;;;;;6291256;22;20041;-94
2022/01/20 12:25:39;;;;;;;13.73;2.47;;;;;;;;;;6306344;22;20011;-94
2022/01/20 12:28:20;;;;;;;18.42;2.75;;;;;;;;;;6303796;22;20022;-93
2022/01/20 12:31:02;;;;;;;11.57;2.53;;;;;;;;;;6303652;22;20335;-93
2022/01/20 12:33:47;;;;;;;19.60;2.63;;;;;;;;;;6303504;22;20012;-93
2022/01/20 12:36:25;;;;;;;19.90;2.20;;;;;;;;;;6308224;22;20067;-94
2022/01/20 12:39:20;;;;;;;13.60;2.00;;;;;;;;;;6307544;22;20045;-93
2022/01/20 12:42:11;;;;;;;13.40;1.92;;;;;;;;;;6285506;22;20015;-93
2022/01/20 12:45:05;;;;;;;12.98;1.92;;;;;;;;;;6309116;22;20022;-94
2022/01/20 12:47:54;;;;;;;17.40;2.75;;;;;;;;;;6333843;22;20030;-94
2022/01/20 12:50:37;;;;;;;12.95;2.00;;;;;;;;;;6307457;22;20074;-94
2022/01/20 12:53:32;;;;;;;12.70;1.85;;;;;;;;;;6324148;22;20031;-95
2022/01/20 12:56:17;;;;;;;10.45;3.08;;;;;;;;;;6308824;22;20031;-94
2022/01/20 12:59:45;;;;;;;;;;;;;;;;;;;;;
2022/01/20 13:02:48;;;;;;;15.43;2.75;;;;;;;;;;6329094;22;20047;-93
2022/01/20 13:05:57;;;;;;;;;;;;;;;;;;;;;
2022/01/20 15:10:15;;;;;;;;;;;;;;;;;;;;;
2022/01/20 15:16:22;;;;;;;18.02;2.78;;;;;;;;;;6243850;22;20049;-94
2022/01/20 15:19:17;;;;;;;;;;;;;;;;;;;;;
2022/01/20 15:40:49;;;;;;;;;;;;;;;;;;;;;
2022/01/20 15:43:54;;;;;;;16.25;2.53;;;;;;;;;;6274777;22;20042;-93
2022/01/20 15:46:52;;;;;;;17.02;2.08;;;;;;;;;;6226496;23;20027;-93
2022/01/20 15:49:34;;;;;;;13.98;2.33;;;;;;;;;;6273545;22;20022;-93
2022/01/20 15:53:05;;;;;;;;;;;;;;;;;;;;;
2022/01/20 15:56:02;;;;;;;13.73;2.38;;;;;;;;;;6183343;23;20006;-94
2022/01/20 16:06:13;;;;;;;;;;;;;;;;;;;;;
2022/01/20 16:09:41;;;;;;;21.65;2.72;;;;;;;;;;6040877;23;20063;-93
2022/01/20 16:12:54;;;;;;;;;;;;;;;;;;;;;
2022/01/20 16:16:04;;;;;;;31.63;4.57;;;;;;;;;;6059459;23;20027;-93
2022/01/20 16:22:34;;;;;;;34.47;5.30;;;;;;;;;;6037466;23;20039;-94
2022/01/20 16:25:33;;;;;;;36.55;6.32;;;;;;;;;;6028318;23;20019;-94
2022/01/20 16:35:29;;;;;;;18.33;3.90;;;;;;;;;;6271173;22;20016;-93
2022/01/20 16:38:12;;;;;;;14.27;3.50;;;;;;;;;;6246669;23;20027;-93
2022/01/20 16:40:53;;;;;;;17.23;2.85;;;;;;;;;;6270326;22;20016;-93
2022/01/20 16:43:37;;;;;;;14.25;2.70;;;;;;;;;;6245969;23;20025;-94
2022/01/20 16:46:29;;;;;;;9.00;2.10;;;;;;;;;;6268653;23;20015;-94
2022/01/20 16:49:15;;;;;;;14.52;2.70;;;;;;;;;;6246922;22;20043;-93
2022/01/20 16:51:55;;;;;;;16.92;3.15;;;;;;;;;;6245975;23;20160;-93
2022/01/20 16:54:28;;;;;;;15.73;3.35;;;;;;;;;;6243416;23;20012;-94
2022/01/20 16:57:10;;;;;;;20.45;4.88;;;;;;;;;;6226606;23;20316;-93
2022/01/20 16:59:37;;;;;;;28.05;3.83;;;;;;;;;;6239823;23;20014;-93
2022/01/20 17:02:26;;;;;;;20.77;3.95;;;;;;;;;;6241071;23;20039;-92
2022/01/20 17:05:00;;;;;;;22.42;4.43;;;;;;;;;;6266672;23;20039;-92
2022/01/20 17:07:30;;;;;;;20.92;3.55;;;;;;;;;;6240361;22;20047;-94
2022/01/20 17:10:13;;;;;;;24.95;4.15;;;;;;;;;;6245815;22;20012;-94
2022/01/20 17:12:54;;;;;;;24.00;3.72;;;;;;;;;;6228684;22;20031;-95
2022/01/20 17:15:34;;;;;;;27.63;4.72;;;;;;;;;;6250226;22;20165;-95
2022/01/20 17:18:29;;;;;;;23.95;3.92;;;;;;;;;;6270312;22;20012;-94
2022/01/20 17:21:10;;;;;;;23.58;3.75;;;;;;;;;;6193059;22;20031;-93
2022/01/20 17:23:42;;;;;;;22.38;3.45;;;;;;;;;;6249316;22;20087;-93
2022/01/20 17:29:42;;;;;;;24.90;3.40;;;;;;;;;;6274346;22;19999;-94
2022/01/20 17:32:13;;;;;;;29.63;4.00;;;;;;;;;;6249222;22;20038;-93
2022/01/20 17:34:42;;;;;;;19.02;3.15;;;;;;;;;;6248549;22;20035;-95
2022/01/20 17:37:23;;;;;;;26.38;3.10;;;;;;;;;;6250811;22;20005;-93
2022/01/20 17:39:57;;;;;;;20.60;3.47;;;;;;;;;;6226662;22;20030;-94
2022/01/20 17:42:29;;;;;;;25.70;3.75;;;;;;;;;;6250014;22;20031;-93
2022/01/20 17:45:04;;;;;;;19.42;4.10;;;;;;;;;;6248576;22;20026;-95
2022/01/20 17:47:45;;;;;;;22.95;4.45;;;;;;;;;;6235928;22;20012;-92
2022/01/20 17:50:14;;;;;;;23.08;3.67;;;;;;;;;;6248848;22;20004;-94
2022/01/20 17:52:57;;;;;;;22.00;2.83;;;;;;;;;;6252078;22;20100;-93
2022/01/20 17:55:55;;;;;;;14.48;3.08;;;;;;;;;;6274186;22;20008;-94
2022/01/20 17:58:35;;;;;;;36.40;4.20;;;;;;;;;;6251039;22;20036;-95
2022/01/20 18:01:07;;;;;;;15.75;2.90;;;;;;;;;;6274730;22;20019;-95
2022/01/20 18:03:35;;;;;;;13.70;2.95;;;;;;;;;;6248851;22;20039;-94
2022/01/20 18:06:20;;;;;;;18.65;3.42;;;;;;;;;;6272719;22;20063;-94
2022/01/20 18:09:06;;;;;;;21.33;3.38;;;;;;;;;;6248481;22;20008;-94
2022/01/20 18:11:34;;;;;;;15.95;2.83;;;;;;;;;;6248909;22;20015;-94
2022/01/20 18:14:01;;;;;;;17.98;2.70;;;;;;;;;;6248486;22;20016;-94
2022/01/20 18:16:43;;;;;;;26.67;3.55;;;;;;;;;;6272740;22;20028;-94
2022/01/20 18:19:26;;;;;;;25.23;3.42;;;;;;;;;;6241796;22;20007;-94
2022/01/20 18:21:54;;;;;;;19.95;2.65;;;;;;;;;;6248177;22;20015;-93
2022/01/20 18:24:30;;;;;;;19.65;3.20;;;;;;;;;;6274018;22;20015;-95
2022/01/20 18:27:10;;;;;;;25.30;2.95;;;;;;;;;;6223533;22;20028;-93
2022/01/20 18:29:40;;;;;;;12.98;2.05;;;;;;;;;;6248931;22;20039;-94
2022/01/20 18:32:23;;;;;;;25.38;3.10;;;;;;;;;;6249763;22;20016;-93
2022/01/20 18:34:50;;;;;;;20.98;2.67;;;;;;;;;;6245600;22;20023;-93
2022/01/20 18:37:33;;;;;;;14.75;2.90;;;;;;;;;;6245614;22;20059;-92
2022/01/20 18:40:19;;;;;;;13.30;3.00;;;;;;;;;;6250681;22;20038;-95
2022/01/20 18:43:03;;;;;;;15.85;4.13;;;;;;;;;;6251105;22;20032;-93
2022/01/20 19:09:00;;;;;;;11.00;2.77;;;;;;;;;;6272151;22;20004;-92
2022/01/20 19:11:27;;;;;;;22.60;2.45;;;;;;;;;;6193657;23;20215;-93
2022/01/20 19:16:47;;;;;;;19.40;3.05;;;;;;;;;;6235777;22;20015;-93
2022/01/20 19:19:28;;;;;;;14.20;3.25;;;;;;;;;;6215868;23;20024;-93
2022/01/20 19:22:05;;;;;;;16.85;2.70;;;;;;;;;;6240483;22;20023;-92
2022/01/20 19:24:36;;;;;;;22.25;2.47;;;;;;;;;;6240863;22;20009;-93
2022/01/20 19:27:09;;;;;;;15.95;2.78;;;;;;;;;;6216550;22;20021;-94
2022/01/20 19:29:42;;;;;;;12.75;2.35;;;;;;;;;;6240804;22;20024;-93
2022/01/20 19:32:17;;;;;;;19.25;2.40;;;;;;;;;;6216994;22;20012;-93
2022/01/20 19:34:52;;;;;;;18.95;2.85;;;;;;;;;;6241599;22;20025;-93
2022/01/20 19:37:39;;;;;;;15.90;2.40;;;;;;;;;;6218759;22;20025;-93
2022/01/20 19:40:08;;;;;;;17.35;2.70;;;;;;;;;;6241576;22;20029;-94
2022/01/20 19:42:43;;;;;;;18.85;2.13;;;;;;;;;;6241800;22;20012;-93
2022/01/20 19:45:11;;;;;;;13.93;2.45;;;;;;;;;;6216782;22;20041;-93
2022/01/20 19:47:52;;;;;;;16.17;2.67;;;;;;;;;;6217370;22;20036;-92
2022/01/20 19:50:21;;;;;;;20.83;3.35;;;;;;;;;;6216733;23;20030;-93
2022/01/20 19:52:54;;;;;;;15.18;3.35;;;;;;;;;;6216819;22;20020;-93
2022/01/20 19:55:21;;;;;;;20.48;3.33;;;;;;;;;;6216016;22;20016;-92
2022/01/20 19:57:59;;;;;;;19.75;3.25;;;;;;;;;;6218353;22;20008;-93
2022/01/20 20:00:35;;;;;;;24.58;3.72;;;;;;;;;;6242624;22;20035;-93
2022/01/20 20:03:11;;;;;;;23.85;3.25;;;;;;;;;;6192184;22;20086;-92
2022/01/20 20:05:45;;;;;;;13.25;3.22;;;;;;;;;;6216689;22;20020;-92
2022/01/20 20:08:20;;;;;;;21.10;2.63;;;;;;;;;;6219699;22;20068;-92
2022/01/20 20:10:50;;;;;;;25.10;3.80;;;;;;;;;;6218984;22;20031;-93
2022/01/20 20:13:21;;;;;;;24.50;3.50;;;;;;;;;;6219242;22;20020;-93
2022/01/20 20:15:48;;;;;;;15.50;3.60;;;;;;;;;;6229270;23;20032;-92
2022/01/20 20:18:16;;;;;;;16.95;3.17;;;;;;;;;;6217176;23;20008;-93
2022/01/20 20:20:44;;;;;;;22.00;3.13;;;;;;;;;;6242504;23;20023;-93
2022/01/20 20:23:15;;;;;;;25.98;3.50;;;;;;;;;;6242116;23;20031;-93
2022/01/20 20:25:43;;;;;;;23.15;3.50;;;;;;;;;;6242506;23;20111;-93
2022/01/20 20:28:10;;;;;;;20.00;3.72;;;;;;;;;;6241916;23;20024;-94
2022/01/20 20:30:39;;;;;;;15.55;4.82;;;;;;;;;;6242256;23;20025;-93
2022/01/20 20:33:07;;;;;;;16.95;3.72;;;;;;;;;;6241784;23;20059;-93
2022/01/20 20:35:36;;;;;;;15.93;3.88;;;;;;;;;;6241924;23;20016;-93
2022/01/20 20:38:14;;;;;;;16.65;2.85;;;;;;;;;;6242294;23;20024;-94
2022/01/20 20:40:42;;;;;;;19.98;3.45;;;;;;;;;;6217468;23;20023;-94
2022/01/20 20:43:11;;;;;;;19.58;3.03;;;;;;;;;;6242157;23;20024;-93
2022/01/20 20:45:39;;;;;;;21.52;3.85;;;;;;;;;;6241959;23;20047;-92
2022/01/20 20:48:09;;;;;;;16.95;3.40;;;;;;;;;;6241435;23;20035;-94
2022/01/20 20:50:43;;;;;;;16.25;3.25;;;;;;;;;;6242651;23;20028;-94
2022/01/20 20:53:44;;;;;;;21.65;3.05;;;;;;;;;;6243338;23;20019;-94
2022/01/20 20:56:25;;;;;;;19.65;3.40;;;;;;;;;;6240796;23;20016;-93
2022/01/20 20:58:53;;;;;;;17.48;3.10;;;;;;;;;;6241194;23;20008;-94
2022/01/20 21:01:26;;;;;;;18.42;3.10;;;;;;;;;;6216820;23;20028;-94
2022/01/20 21:03:54;;;;;;;16.40;3.10;;;;;;;;;;6229130;23;20016;-93
2022/01/20 21:06:25;;;;;;;23.45;3.22;;;;;;;;;;6243246;23;20024;-94
2022/01/20 21:08:57;;;;;;;21.02;3.35;;;;;;;;;;6244395;23;20007;-93
2022/01/20 21:11:38;;;;;;;19.83;3.00;;;;;;;;;;6242065;23;20048;-93
2022/01/20 21:14:06;;;;;;;21.08;3.45;;;;;;;;;;6243667;23;20016;-94
2022/01/20 21:16:49;;;;;;;17.70;3.70;;;;;;;;;;6221453;23;20023;-93
2022/01/20 21:19:18;;;;;;;21.60;3.08;;;;;;;;;;6220144;23;20030;-95
2022/01/20 21:21:59;;;;;;;22.38;4.03;;;;;;;;;;6242544;23;20013;-95
2022/01/20 21:24:27;;;;;;;16.38;3.65;;;;;;;;;;6244655;23;20063;-95
2022/01/20 21:26:56;;;;;;;17.95;3.15;;;;;;;;;;6244470;23;20023;-94
2022/01/20 21:29:24;;;;;;;26.35;4.45;;;;;;;;;;6242459;23;20072;-94
2022/01/20 21:32:05;;;;;;;19.38;3.28;;;;;;;;;;6237549;23;20047;-94
2022/01/20 21:34:32;;;;;;;19.80;4.28;;;;;;;;;;6240732;23;20009;-94
2022/01/20 21:37:13;;;;;;;12.52;2.75;;;;;;;;;;6243674;23;20035;-94
2022/01/20 21:39:56;;;;;;;17.05;2.80;;;;;;;;;;6241399;23;20028;-94
2022/01/20 21:42:23;;;;;;;12.82;2.80;;;;;;;;;;6243236;23;20025;-95
2022/01/20 21:44:54;;;;;;;14.50;3.00;;;;;;;;;;6243586;23;20011;-95
2022/01/20 21:47:22;;;;;;;13.25;2.55;;;;;;;;;;6243556;23;20012;-94
2022/01/20 21:49:50;;;;;;;18.67;2.42;;;;;;;;;;6243090;23;20036;-94
2022/01/20 21:52:21;;;;;;;18.88;2.63;;;;;;;;;;6243253;23;20012;-94
2022/01/20 21:54:49;;;;;;;14.38;3.10;;;;;;;;;;6243461;23;20005;-93
2022/01/20 21:57:20;;;;;;;11.73;2.33;;;;;;;;;;6243318;23;20027;-94
2022/01/20 21:59:47;;;;;;;16.95;3.53;;;;;;;;;;6243862;23;20017;-94
2022/01/20 22:05:00;;;;;;;16.27;2.58;;;;;;;;;;6189302;23;20001;-94
2022/01/20 22:07:29;;;;;;;25.23;3.08;;;;;;;;;;6166648;23;20009;-94
2022/01/20 22:10:00;;;;;;;20.15;3.17;;;;;;;;;;6190954;23;20036;-94
2022/01/20 22:12:28;;;;;;;13.45;2.67;;;;;;;;;;6189516;23;20032;-94
2022/01/20 22:14:58;;;;;;;14.52;2.33;;;;;;;;;;6188934;23;20012;-93
2022/01/20 22:17:38;;;;;;;16.60;3.03;;;;;;;;;;6169489;23;20016;-94
2022/01/20 22:20:08;;;;;;;16.23;2.85;;;;;;;;;;6189326;23;20011;-94
2022/01/20 22:22:36;;;;;;;22.70;3.75;;;;;;;;;;6188674;23;20013;-94
2022/01/20 22:25:04;;;;;;;20.10;4.13;;;;;;;;;;6188813;23;20005;-94
2022/01/20 22:27:34;;;;;;;13.02;2.15;;;;;;;;;;6189279;23;20012;-93
2022/01/20 22:30:02;;;;;;;20.13;3.15;;;;;;;;;;6187966;23;20013;-95
2022/01/20 22:32:29;;;;;;;19.33;2.55;;;;;;;;;;6188410;23;20005;-95
2022/01/20 22:34:57;;;;;;;26.13;3.10;;;;;;;;;;6188138;23;20024;-95
2022/01/20 22:37:29;;;;;;;16.17;3.20;;;;;;;;;;6188660;23;20009;-95
2022/01/20 22:39:58;;;;;;;23.83;2.78;;;;;;;;;;6187992;23;20065;-94
2022/01/20 22:42:25;;;;;;;30.10;3.03;;;;;;;;;;6188210;23;20009;-94
2022/01/20 22:45:00;;;;;;;22.58;3.70;;;;;;;;;;6189965;23;20009;-95
2022/01/20 22:47:29;;;;;;;17.55;2.70;;;;;;;;;;6188426;23;20017;-94
2022/01/20 22:50:13;;;;;;;20.50;3.08;;;;;;;;;;6191208;23;20009;-94
2022/01/20 22:52:54;;;;;;;16.58;2.28;;;;;;;;;;6189040;23;20016;-94
2022/01/20 23:06:17;;;;;;;14.55;2.55;;;;;;;;;;6001751;22;4699999;-95
2022/01/20 23:08:45;;;;;;;17.88;2.85;;;;;;;;;;6319954;22;20022;-95
2022/01/20 23:11:12;;;;;;;24.20;2.05;;;;;;;;;;6318493;22;20027;-94
2022/01/20 23:13:40;;;;;;;9.80;2.60;;;;;;;;;;6318605;22;20003;-94
2022/01/20 23:16:32;;;;;;;19.25;3.20;;;;;;;;;;6319312;22;20011;-94
2022/01/20 23:21:59;;;;;;;16.33;2.40;;;;;;;;;;6269097;22;20007;-94
2022/01/20 23:24:32;;;;;;;32.88;3.58;;;;;;;;;;6318139;22;20022;-94
2022/01/20 23:27:00;;;;;;;18.70;3.05;;;;;;;;;;6318382;22;20046;-94
2022/01/20 23:29:28;;;;;;;24.70;3.40;;;;;;;;;;6344502;22;20066;-94
2022/01/20 23:31:55;;;;;;;24.83;3.70;;;;;;;;;;6317792;22;20011;-94
2022/01/20 23:34:29;;;;;;;19.63;2.90;;;;;;;;;;6317985;22;20011;-93
2022/01/20 23:36:58;;;;;;;18.50;3.88;;;;;;;;;;6318393;22;20057;-95
2022/01/20 23:39:30;;;;;;;22.33;3.25;;;;;;;;;;6319117;22;20003;-93
2022/01/20 23:42:06;;;;;;;14.93;2.95;;;;;;;;;;6344179;22;20018;-92
2022/01/20 23:44:52;;;;;;;10.52;2.67;;;;;;;;;;6317838;22;20007;-94
2022/01/20 23:53:45;;;;;;;17.02;3.45;;;;;;;;;;6344681;22;19998;-94
2022/01/20 23:56:31;;;;;;;22.38;3.75;;;;;;;;;;6319568;22;20014;-95
2022/01/20 23:59:12;;;;;;;9.85;2.50;;;;;;;;;;6342472;22;20014;-93
